createdAt,value
2018-07-25T00:00:25.760Z,3.23
2018-07-25T00:02:54.431Z,3.03
2018-07-25T00:05:23.059Z,5.53
2018-07-25T00:07:51.339Z,3.17
2018-07-25T00:10:20.049Z,3.63
2018-07-25T00:12:48.566Z,3.10
2018-07-25T00:15:16.948Z,3.30
2018-07-25T00:17:48.394Z,3.40
2018-07-25T00:20:17.107Z,3.60
2018-07-25T00:22:45.752Z,3.63
2018-07-25T00:25:14.117Z,3.03
2018-07-25T00:27:42.724Z,3.30
2018-07-25T00:30:11.337Z,2.93
2018-07-25T00:32:39.675Z,3.40
2018-07-25T00:35:08.032Z,3.80
2018-07-25T00:37:36.685Z,3.30
2018-07-25T00:40:05.184Z,3.30
2018-07-25T00:42:33.296Z,2.93
2018-07-25T00:45:01.690Z,2.73
2018-07-25T00:47:30.461Z,2.63
2018-07-25T00:49:59.569Z,2.87
2018-07-25T00:52:28.185Z,2.97
2018-07-25T00:54:56.419Z,3.30
2018-07-25T00:57:25.263Z,3.23
2018-07-25T00:59:54.020Z,3.00
2018-07-25T01:02:22.624Z,3.10
2018-07-25T01:04:51.537Z,3.47
2018-07-25T01:07:20.264Z,3.07
2018-07-25T01:09:48.770Z,3.20
2018-07-25T01:12:17.735Z,3.00
2018-07-25T01:14:46.532Z,2.80
2018-07-25T01:17:14.870Z,2.70
2018-07-25T01:19:43.396Z,2.83
2018-07-25T01:22:11.947Z,3.10
2018-07-25T01:24:40.471Z,3.33
2018-07-25T01:27:08.869Z,3.00
2018-07-25T01:29:37.448Z,3.10
2018-07-25T01:32:06.389Z,3.60
2018-07-25T01:34:34.745Z,3.07
2018-07-25T01:37:03.063Z,3.40
2018-07-25T01:39:31.738Z,3.07
2018-07-25T01:42:00.456Z,3.03
2018-07-25T01:44:29.193Z,3.50
2018-07-25T01:46:57.812Z,3.53
2018-07-25T01:49:26.608Z,3.47
2018-07-25T01:51:55.261Z,3.77
2018-07-25T01:54:23.865Z,3.60
2018-07-25T01:56:52.232Z,3.40
2018-07-25T01:59:20.684Z,2.90
2018-07-25T02:01:48.911Z,3.07
2018-07-25T02:04:17.560Z,2.97
2018-07-25T02:06:46.272Z,3.43
2018-07-25T02:09:14.957Z,3.33
2018-07-25T02:11:50.178Z,3.27
2018-07-25T02:14:18.865Z,4.20
2018-07-25T02:16:47.776Z,4.60
2018-07-25T02:19:16.109Z,4.60
2018-07-25T02:21:44.191Z,5.33
2018-07-25T02:24:12.508Z,5.60
2018-07-25T02:26:41.010Z,6.03
2018-07-25T02:29:09.778Z,6.23
2018-07-25T02:31:38.359Z,5.43
2018-07-25T02:34:12.326Z,5.87
2018-07-25T02:36:40.584Z,5.70
2018-07-25T02:39:11.463Z,6.20
2018-07-25T02:41:40.317Z,6.87
2018-07-25T02:44:08.992Z,6.87
2018-07-25T02:46:37.662Z,6.80
2018-07-25T02:49:06.366Z,6.80
2018-07-25T02:51:35.147Z,7.53
2018-07-25T02:54:04.734Z,6.80
2018-07-25T02:56:33.731Z,6.83
2018-07-25T02:59:03.667Z,7.63
2018-07-25T03:01:32.661Z,6.80
2018-07-25T03:04:01.725Z,7.60
2018-07-25T03:06:30.851Z,7.30
2018-07-25T03:08:59.656Z,7.43
2018-07-25T03:11:28.020Z,7.40
2018-07-25T03:13:57.089Z,6.37
2018-07-25T03:16:25.853Z,6.80
2018-07-25T03:18:54.973Z,6.50
2018-07-25T03:21:23.903Z,6.13
2018-07-25T03:23:52.665Z,7.17
2018-07-25T03:26:21.471Z,6.90
2018-07-25T03:28:50.175Z,7.40
2018-07-25T03:31:19.143Z,6.73
2018-07-25T03:33:47.821Z,6.33
2018-07-25T03:36:16.713Z,6.50
2018-07-25T03:38:45.612Z,7.07
2018-07-25T03:41:14.691Z,6.60
2018-07-25T03:43:43.272Z,5.13
2018-07-25T03:46:11.975Z,5.07
2018-07-25T03:48:40.650Z,6.13
2018-07-25T03:51:09.334Z,5.40
2018-07-25T03:53:37.652Z,5.93
2018-07-25T03:56:06.036Z,5.60
2018-07-25T03:58:34.364Z,5.40
2018-07-25T04:01:03.035Z,5.17
2018-07-25T04:03:31.743Z,5.20
2018-07-25T04:06:00.147Z,4.97
2018-07-25T04:08:28.588Z,5.30
2018-07-25T04:10:57.478Z,4.77
2018-07-25T04:13:26.288Z,5.23
2018-07-25T04:15:55.041Z,4.70
2018-07-25T04:18:23.880Z,5.17
2018-07-25T04:20:52.288Z,4.87
2018-07-25T04:23:21.092Z,5.37
2018-07-25T04:25:49.444Z,5.83
2018-07-25T04:28:18.458Z,5.80
2018-07-25T04:30:47.252Z,5.57
2018-07-25T04:33:15.658Z,6.07
2018-07-25T04:35:44.000Z,5.80
2018-07-25T04:38:12.071Z,5.63
2018-07-25T04:40:40.278Z,5.43
2018-07-25T04:43:08.644Z,5.50
2018-07-25T04:45:37.536Z,4.87
2018-07-25T04:48:06.188Z,5.90
2018-07-25T04:50:34.619Z,5.50
2018-07-25T04:53:03.302Z,5.63
2018-07-25T04:55:31.967Z,6.27
2018-07-25T04:58:00.327Z,6.33
2018-07-25T05:00:28.689Z,6.20
2018-07-25T05:02:57.042Z,6.03
2018-07-25T05:05:25.402Z,6.43
2018-07-25T05:07:54.204Z,6.17
2018-07-25T05:10:22.928Z,6.00
2018-07-25T05:12:51.226Z,6.63
2018-07-25T05:15:19.388Z,5.93
2018-07-25T05:17:47.834Z,6.13
2018-07-25T05:20:16.275Z,6.10
2018-07-25T05:22:44.885Z,6.20
2018-07-25T05:25:13.259Z,6.37
2018-07-25T05:27:42.044Z,5.53
2018-07-25T05:30:10.688Z,6.30
2018-07-25T05:32:39.376Z,6.43
2018-07-25T05:35:08.393Z,6.23
2018-07-25T05:37:38.106Z,7.03
2018-07-25T05:40:06.770Z,7.17
2018-07-25T05:42:35.136Z,6.40
2018-07-25T05:45:11.479Z,6.20
2018-07-25T05:47:41.708Z,6.63
2018-07-25T05:50:11.774Z,7.03
2018-07-25T05:52:44.432Z,7.30
2018-07-25T05:55:13.112Z,7.90
2018-07-25T05:57:41.985Z,8.40
2018-07-25T06:00:10.744Z,9.27
2018-07-25T06:02:39.738Z,8.67
2018-07-25T06:05:08.854Z,7.97
2018-07-25T06:07:37.623Z,7.73
2018-07-25T06:10:06.554Z,8.37
2018-07-25T06:12:36.411Z,7.50
2018-07-25T06:15:05.671Z,7.50
2018-07-25T06:17:34.655Z,8.00
2018-07-25T06:20:03.615Z,7.60
2018-07-25T06:22:32.434Z,6.60
2018-07-25T06:25:01.258Z,6.80
2018-07-25T06:27:29.661Z,7.00
2018-07-25T06:29:58.482Z,6.60
2018-07-25T06:32:27.236Z,6.53
2018-07-25T06:34:56.060Z,6.50
2018-07-25T06:37:24.882Z,6.67
2018-07-25T06:39:53.557Z,5.43
2018-07-25T06:42:22.080Z,5.23
2018-07-25T06:44:50.984Z,5.27
2018-07-25T06:47:19.405Z,6.63
2018-07-25T06:49:48.192Z,5.70
2018-07-25T06:52:16.808Z,5.93
2018-07-25T06:54:45.333Z,5.80
2018-07-25T06:57:14.193Z,5.73
2018-07-25T06:59:42.753Z,5.43
2018-07-25T07:02:11.263Z,5.77
2018-07-25T07:04:39.669Z,5.57
2018-07-25T07:07:08.092Z,6.00
2018-07-25T07:09:36.179Z,4.93
2018-07-25T07:12:04.596Z,5.90
2018-07-25T07:14:32.944Z,5.20
2018-07-25T07:17:01.304Z,5.50
2018-07-25T07:19:29.644Z,4.57
2018-07-25T07:21:58.320Z,5.33
2018-07-25T07:24:26.704Z,5.53
2018-07-25T07:26:55.345Z,5.07
2018-07-25T07:29:23.663Z,5.23
2018-07-25T07:31:51.989Z,4.90
2018-07-25T07:34:20.347Z,7.50
2018-07-25T07:36:48.671Z,4.83
2018-07-25T07:39:17.005Z,4.33
2018-07-25T07:41:45.099Z,4.77
2018-07-25T07:44:13.531Z,4.60
2018-07-25T07:46:41.887Z,4.60
2018-07-25T07:49:10.224Z,4.80
2018-07-25T07:51:38.623Z,4.40
2018-07-25T07:54:07.006Z,8.63
2018-07-25T07:56:35.339Z,16.67
2018-07-25T07:59:03.708Z,12.13
2018-07-25T08:01:32.057Z,12.83
2018-07-25T08:04:00.364Z,5.37
2018-07-25T08:06:28.792Z,4.80
2018-07-25T08:08:57.139Z,3.97
2018-07-25T08:11:25.800Z,3.80
2018-07-25T08:13:54.200Z,5.10
2018-07-25T08:16:22.535Z,4.10
2018-07-25T08:18:50.892Z,3.63
2018-07-25T08:21:19.436Z,4.10
2018-07-25T08:23:47.877Z,3.77
2018-07-25T08:26:16.300Z,4.13
2018-07-25T08:28:44.841Z,4.17
2018-07-25T08:31:13.525Z,3.73
2018-07-25T08:33:41.891Z,4.50
2018-07-25T08:36:10.211Z,3.93
2018-07-25T08:38:39.944Z,4.07
2018-07-25T08:41:08.374Z,4.10
2018-07-25T08:43:38.781Z,4.23
2018-07-25T08:46:08.360Z,3.80
2018-07-25T08:48:37.050Z,5.70
2018-07-25T08:51:05.416Z,3.80
2018-07-25T08:53:34.656Z,3.87
2018-07-25T08:56:02.996Z,4.00
2018-07-25T08:58:31.342Z,3.90
2018-07-25T09:01:00.078Z,3.93
2018-07-25T09:03:28.428Z,3.60
2018-07-25T09:05:56.819Z,4.30
2018-07-25T09:08:25.477Z,4.43
2018-07-25T09:10:54.045Z,3.90
2018-07-25T09:13:22.408Z,4.17
2018-07-25T09:15:50.745Z,4.40
2018-07-25T09:18:19.104Z,4.97
2018-07-25T09:20:47.869Z,4.90
2018-07-25T09:23:16.204Z,5.00
2018-07-25T09:25:44.279Z,5.40
2018-07-25T09:28:12.350Z,4.03
2018-07-25T09:30:41.041Z,4.83
2018-07-25T09:33:09.143Z,4.23
2018-07-25T09:35:37.472Z,4.33
2018-07-25T09:38:05.824Z,4.63
2018-07-25T09:40:34.577Z,4.40
2018-07-25T09:43:02.956Z,4.60
2018-07-25T09:45:31.315Z,5.00
2018-07-25T09:47:59.707Z,4.33
2018-07-25T09:50:28.305Z,4.57
2018-07-25T09:52:57.070Z,4.83
2018-07-25T09:55:25.491Z,5.77
2018-07-25T09:57:53.908Z,5.20
2018-07-25T10:00:27.620Z,4.67
2018-07-25T10:02:55.952Z,4.37
2018-07-25T10:05:24.292Z,5.40
2018-07-25T10:07:52.633Z,4.60
2018-07-25T10:10:22.109Z,4.80
2018-07-25T10:12:50.232Z,5.40
2018-07-25T10:15:18.685Z,4.97
2018-07-25T10:17:46.920Z,5.03
2018-07-25T10:20:15.292Z,5.10
2018-07-25T10:22:43.679Z,5.10
2018-07-25T10:25:12.281Z,5.23
2018-07-25T10:27:40.663Z,5.17
2018-07-25T10:30:09.007Z,5.67
2018-07-25T10:32:37.388Z,5.23
2018-07-25T10:35:05.829Z,5.00
2018-07-25T10:37:34.168Z,5.37
2018-07-25T10:40:02.554Z,5.53
2018-07-25T10:42:31.041Z,4.37
2018-07-25T10:44:59.396Z,4.77
2018-07-25T10:47:28.056Z,4.60
2018-07-25T10:49:56.161Z,6.00
2018-07-25T10:52:24.501Z,5.10
2018-07-25T10:54:52.900Z,5.27
2018-07-25T10:57:21.320Z,5.00
2018-07-25T10:59:49.863Z,5.00
2018-07-25T11:02:18.660Z,4.40
2018-07-25T11:04:46.641Z,4.93
2018-07-25T11:07:15.056Z,5.80
2018-07-25T11:09:44.225Z,5.20
2018-07-25T11:12:12.575Z,5.17
2018-07-25T11:14:40.927Z,5.20
2018-07-25T11:17:09.223Z,5.43
2018-07-25T11:19:37.585Z,4.47
2018-07-25T11:22:05.735Z,5.40
2018-07-25T11:24:34.192Z,5.20
2018-07-25T11:27:02.655Z,5.47
2018-07-25T11:29:31.012Z,4.53
2018-07-25T11:31:59.098Z,4.50
2018-07-25T11:34:27.516Z,4.90
2018-07-25T11:36:55.840Z,4.87
2018-07-25T11:39:23.915Z,4.67
2018-07-25T11:41:52.192Z,4.50
2018-07-25T11:44:20.557Z,4.53
2018-07-25T11:46:49.028Z,4.50
2018-07-25T11:49:17.380Z,4.50
2018-07-25T11:51:45.551Z,4.83
2018-07-25T11:54:13.904Z,4.33
2018-07-25T11:56:42.292Z,5.27
2018-07-25T11:59:10.728Z,3.87
2018-07-25T12:01:39.086Z,4.17
2018-07-25T12:04:07.872Z,5.07
2018-07-25T12:06:36.256Z,4.70
2018-07-25T12:09:07.878Z,4.23
2018-07-25T12:11:40.514Z,4.40
2018-07-25T12:14:08.900Z,4.60
2018-07-25T12:16:37.244Z,4.00
2018-07-25T12:19:05.623Z,4.63
2018-07-25T12:21:33.988Z,4.60
2018-07-25T12:24:02.403Z,4.70
2018-07-25T12:26:33.926Z,5.20
2018-07-25T12:29:02.307Z,5.20
2018-07-25T12:31:31.239Z,4.80
2018-07-25T12:33:59.764Z,5.00
2018-07-25T12:36:28.396Z,4.73
2018-07-25T12:38:56.478Z,5.00
2018-07-25T12:41:24.815Z,5.00
2018-07-25T12:43:53.184Z,4.40
2018-07-25T12:46:21.640Z,5.10
2018-07-25T12:48:49.989Z,4.70
2018-07-25T12:51:18.332Z,4.60
2018-07-25T12:56:21.451Z,5.10
2018-07-25T12:58:49.864Z,5.20
2018-07-25T13:01:18.300Z,5.03
2018-07-25T13:03:46.668Z,5.00
2018-07-25T13:06:15.048Z,5.00
2018-07-25T13:08:43.480Z,5.53
2018-07-25T13:11:11.828Z,4.33
2018-07-25T13:13:39.987Z,5.07
2018-07-25T13:16:08.345Z,5.30
2018-07-25T13:18:36.695Z,4.80
2018-07-25T13:21:05.576Z,4.73
2018-07-25T13:23:33.955Z,4.63
2018-07-25T13:26:02.312Z,5.60
2018-07-25T13:28:30.514Z,5.23
2018-07-25T13:30:58.848Z,5.17
2018-07-25T13:33:27.205Z,4.97
2018-07-25T13:35:55.626Z,4.87
2018-07-25T13:38:24.200Z,5.57
2018-07-25T13:40:52.639Z,5.27
2018-07-25T13:43:21.040Z,4.93
2018-07-25T13:45:49.409Z,5.10
2018-07-25T13:48:17.775Z,4.80
2018-07-25T13:50:46.308Z,4.80
2018-07-25T13:53:14.665Z,5.23
2018-07-25T13:55:43.023Z,5.40
2018-07-25T13:58:11.388Z,5.80
2018-07-25T14:00:40.095Z,5.40
2018-07-25T14:03:08.464Z,5.57
2018-07-25T14:05:36.823Z,5.60
2018-07-25T14:08:05.430Z,5.50
2018-07-25T14:10:33.759Z,6.10
2018-07-25T14:13:02.221Z,6.40
2018-07-25T14:15:30.659Z,6.07
2018-07-25T14:17:59.060Z,6.03
2018-07-25T14:20:27.404Z,6.70
2018-07-25T14:22:55.756Z,6.20
2018-07-25T14:25:24.239Z,5.93
2018-07-25T14:27:52.616Z,6.13
2018-07-25T14:30:20.786Z,5.80
2018-07-25T14:32:49.237Z,6.77
2018-07-25T14:35:17.703Z,5.43
2018-07-25T14:37:46.048Z,5.33
2018-07-25T14:40:14.602Z,5.97
2018-07-25T14:42:42.824Z,6.30
2018-07-25T14:45:11.269Z,6.17
2018-07-25T14:47:39.648Z,6.30
2018-07-25T14:50:08.489Z,5.70
2018-07-25T14:52:36.833Z,5.90
2018-07-25T14:55:05.237Z,6.47
2018-07-25T14:57:33.580Z,6.73
2018-07-25T15:00:01.792Z,6.03
2018-07-25T15:02:30.353Z,6.60
2018-07-25T15:04:58.880Z,6.13
2018-07-25T15:07:27.327Z,6.20
2018-07-25T15:09:55.712Z,6.13
2018-07-25T15:12:29.464Z,6.07
2018-07-25T15:14:57.912Z,6.17
2018-07-25T15:17:26.663Z,6.30
2018-07-25T15:19:55.467Z,5.90
2018-07-25T15:22:24.312Z,6.60
2018-07-25T15:24:52.840Z,5.97
2018-07-25T15:27:21.240Z,5.97
2018-07-25T15:29:49.825Z,5.57
2018-07-25T15:32:18.251Z,5.97
2018-07-25T15:34:46.926Z,6.90
2018-07-25T15:37:15.508Z,6.43
2018-07-25T15:39:43.890Z,6.70
2018-07-25T15:42:12.026Z,6.03
2018-07-25T15:44:40.460Z,6.57
2018-07-25T15:47:08.864Z,6.30
2018-07-25T15:49:37.218Z,6.67
2018-07-25T15:52:05.711Z,7.23
2018-07-25T15:54:34.498Z,7.40
2018-07-25T15:57:02.920Z,7.57
2018-07-25T15:59:31.337Z,6.70
2018-07-25T16:02:05.871Z,6.60
2018-07-25T16:04:34.277Z,7.47
2018-07-25T16:07:04.391Z,7.13
2018-07-25T16:09:33.022Z,6.80
2018-07-25T16:12:01.764Z,7.13
2018-07-25T16:14:30.660Z,6.70
2018-07-25T16:16:59.393Z,6.57
2018-07-25T16:19:32.890Z,6.20
2018-07-25T16:22:01.163Z,6.50
2018-07-25T16:24:29.635Z,7.77
2018-07-25T16:26:57.731Z,7.30
2018-07-25T16:29:26.177Z,7.37
2018-07-25T16:31:54.750Z,9.10
2018-07-25T16:34:23.264Z,6.13
2018-07-25T16:36:52.032Z,7.17
2018-07-25T16:39:20.645Z,6.63
2018-07-25T16:41:49.130Z,6.67
2018-07-25T16:44:17.544Z,6.63
2018-07-25T16:46:46.254Z,6.77
2018-07-25T16:49:15.024Z,7.80
2018-07-25T16:51:43.404Z,5.90
2018-07-25T16:54:11.767Z,6.70
2018-07-25T16:56:40.366Z,7.17
2018-07-25T16:59:08.648Z,6.10
2018-07-25T17:01:37.160Z,6.17
2018-07-25T17:04:05.702Z,7.43
2018-07-25T17:06:34.162Z,7.17
2018-07-25T17:09:02.580Z,7.50
2018-07-25T17:11:30.960Z,6.73
2018-07-25T17:13:59.328Z,6.27
2018-07-25T17:16:27.699Z,6.73
2018-07-25T17:18:56.244Z,7.50
2018-07-25T17:21:24.685Z,7.47
2018-07-25T17:23:53.084Z,7.10
2018-07-25T17:26:24.836Z,7.70
2018-07-25T17:28:53.259Z,7.77
2018-07-25T17:31:21.628Z,7.20
2018-07-25T17:33:49.751Z,7.50
2018-07-25T17:36:18.638Z,8.23
2018-07-25T17:38:47.056Z,8.20
2018-07-25T17:41:15.551Z,7.50
2018-07-25T17:43:44.279Z,7.53
2018-07-25T17:46:12.896Z,7.50
2018-07-25T17:48:41.441Z,7.40
2018-07-25T17:51:09.858Z,8.20
2018-07-25T17:53:38.426Z,7.67
2018-07-25T17:56:06.886Z,7.80
2018-07-25T17:58:35.400Z,7.17
2018-07-25T18:01:03.791Z,7.80
2018-07-25T18:03:32.319Z,8.10
2018-07-25T18:06:00.400Z,7.60
2018-07-25T18:08:28.797Z,8.10
2018-07-25T18:10:57.156Z,6.97
2018-07-25T18:13:31.056Z,6.50
2018-07-25T18:15:59.322Z,6.70
2018-07-25T18:18:27.688Z,8.00
2018-07-25T18:20:56.216Z,7.40
2018-07-25T18:23:24.690Z,6.53
2018-07-25T18:25:53.049Z,7.10
2018-07-25T18:28:21.477Z,8.10
2018-07-25T18:30:53.000Z,8.20
2018-07-25T18:33:21.752Z,7.80
2018-07-25T18:35:49.996Z,7.83
2018-07-25T18:38:18.420Z,7.97
2018-07-25T18:40:46.992Z,7.27
2018-07-25T18:43:15.575Z,8.73
2018-07-25T18:45:44.230Z,8.30
2018-07-25T18:48:12.807Z,6.53
2018-07-25T18:50:41.412Z,7.30
2018-07-25T18:53:16.244Z,8.47
2018-07-25T18:55:45.638Z,6.97
2018-07-25T18:58:14.182Z,7.03
2018-07-25T19:00:45.009Z,7.40
2018-07-25T19:03:14.324Z,7.20
2018-07-25T19:05:42.967Z,6.83
2018-07-25T19:08:11.723Z,6.50
2018-07-25T19:10:40.257Z,6.97
2018-07-25T19:13:14.335Z,6.87
2018-07-25T19:15:42.954Z,6.50
2018-07-25T19:18:11.539Z,5.17
2018-07-25T19:20:40.140Z,5.30
2018-07-25T19:23:08.735Z,6.43
2018-07-25T19:25:37.142Z,7.00
2018-07-25T19:28:05.893Z,5.10
2018-07-25T19:30:34.425Z,6.23
2018-07-25T19:33:02.989Z,5.97
2018-07-25T19:35:31.606Z,4.90
2018-07-25T19:38:00.224Z,7.40
2018-07-25T19:40:28.484Z,6.33
2018-07-25T19:42:56.756Z,6.80
2018-07-25T19:45:25.304Z,5.53
2018-07-25T19:47:53.846Z,6.57
2018-07-25T19:50:22.383Z,6.97
2018-07-25T19:52:50.903Z,6.70
2018-07-25T19:55:19.492Z,5.73
2018-07-25T19:57:48.177Z,6.17
2018-07-25T20:00:16.768Z,9.40
2018-07-25T20:02:45.088Z,4.90
2018-07-25T20:05:14.072Z,6.40
2018-07-25T20:07:42.699Z,5.10
2018-07-25T20:10:11.415Z,6.17
2018-07-25T20:12:46.770Z,5.33
2018-07-25T20:15:20.764Z,5.20
2018-07-25T20:17:49.399Z,5.53
2018-07-25T20:20:17.992Z,5.30
2018-07-25T20:22:46.674Z,5.43
2018-07-25T20:25:15.381Z,5.30
2018-07-25T20:27:44.137Z,4.63
2018-07-25T20:30:12.781Z,5.20
2018-07-25T20:32:41.405Z,4.40
2018-07-25T20:35:10.015Z,5.60
2018-07-25T20:37:38.570Z,5.27
2018-07-25T20:40:07.040Z,5.53
2018-07-25T20:42:35.564Z,4.90
2018-07-25T20:45:04.169Z,5.63
2018-07-25T20:47:32.589Z,5.00
2018-07-25T20:50:00.944Z,5.33
2018-07-25T20:52:29.505Z,4.70
2018-07-25T20:54:57.868Z,4.97
2018-07-25T20:57:26.220Z,5.03
2018-07-25T20:59:54.586Z,4.50
2018-07-25T21:02:29.261Z,4.87
2018-07-25T21:04:57.754Z,4.67
2018-07-25T21:07:25.829Z,4.40
2018-07-25T21:09:54.197Z,4.47
2018-07-25T21:12:22.541Z,6.20
2018-07-25T21:14:51.032Z,4.70
2018-07-25T21:17:19.466Z,4.87
2018-07-25T21:19:48.044Z,5.00
2018-07-25T21:22:16.472Z,5.27
2018-07-25T21:24:44.852Z,4.40
2018-07-25T21:27:13.192Z,4.93
2018-07-25T21:29:41.532Z,5.53
2018-07-25T21:32:10.302Z,4.90
2018-07-25T21:34:39.130Z,4.80
2018-07-25T21:37:07.795Z,4.47
2018-07-25T21:39:36.187Z,5.10
2018-07-25T21:42:04.295Z,5.17
2018-07-25T21:44:32.664Z,4.47
2018-07-25T21:47:01.016Z,4.70
2018-07-25T21:49:29.184Z,5.37
2018-07-25T21:51:57.300Z,4.97
2018-07-25T21:54:25.640Z,5.60
2018-07-25T21:56:53.840Z,5.00
2018-07-25T21:59:22.204Z,5.07
2018-07-25T22:01:50.668Z,5.33
2018-07-25T22:04:18.763Z,5.13
2018-07-25T22:06:47.252Z,4.90
2018-07-25T22:09:15.603Z,5.80
2018-07-25T22:11:43.775Z,5.70
2018-07-25T22:14:12.156Z,5.20
2018-07-25T22:16:40.235Z,5.60
2018-07-25T22:19:08.633Z,5.33
2018-07-25T22:21:37.052Z,5.60
2018-07-25T22:24:05.588Z,5.40
2018-07-25T22:26:34.025Z,5.30
2018-07-25T22:29:02.406Z,6.20
2018-07-25T22:31:30.842Z,6.00
2018-07-25T22:33:59.185Z,6.07
2018-07-25T22:36:27.306Z,5.93
2018-07-25T22:38:55.660Z,6.77
2018-07-25T22:41:23.992Z,6.60
2018-07-25T22:43:52.316Z,6.23
2018-07-25T22:46:20.656Z,5.57
2018-07-25T22:48:48.994Z,5.60
2018-07-25T22:51:17.336Z,6.03
2018-07-25T22:53:45.704Z,6.53
2018-07-25T22:56:14.028Z,5.37
2018-07-25T22:58:42.356Z,6.53
2018-07-25T23:01:10.696Z,6.00
2018-07-25T23:03:39.029Z,5.70
2018-07-25T23:06:07.368Z,6.60
2018-07-25T23:08:35.718Z,5.83
2018-07-25T23:11:04.048Z,6.40
2018-07-25T23:13:32.381Z,6.37
2018-07-25T23:16:00.820Z,6.27
2018-07-25T23:18:28.892Z,5.90
2018-07-25T23:20:56.998Z,6.90
2018-07-25T23:23:25.332Z,5.70
2018-07-25T23:25:53.897Z,5.60
2018-07-25T23:28:22.463Z,5.80
2018-07-25T23:33:25.905Z,6.20
2018-07-25T23:35:54.499Z,5.60
2018-07-25T23:38:23.140Z,5.77
2018-07-25T23:40:51.588Z,5.47
2018-07-25T23:43:19.927Z,5.87
2018-07-25T23:45:48.267Z,6.57
2018-07-25T23:48:16.612Z,5.70
2018-07-25T23:50:44.964Z,6.97
2018-07-25T23:53:13.288Z,6.03
2018-07-25T23:55:41.616Z,5.50
2018-07-25T23:58:09.968Z,6.33
